sensor_id;sensor_type;location;lat;lon;timestamp;P1;durP1;ratioP1;P2;durP2;ratioP2
33152;SDS011;19509;43.862;26.176;2023-04-15T00:02:22;2.80;;;2.80;;
33152;SDS011;19509;43.862;26.176;2023-04-15T00:04:48;1.30;;;1.30;;
33152;SDS011;19509;43.862;26.176;2023-04-15T00:07:13;0.80;;;0.80;;
33152;SDS011;19509;43.862;26.176;2023-04-15T00:09:40;0.77;;;0.77;;
33152;SDS011;19509;43.862;26.176;2023-04-15T00:12:06;0.70;;;0.70;;
33152;SDS011;19509;43.862;26.176;2023-04-15T00:14:33;0.60;;;0.60;;
33152;SDS011;19509;43.862;26.176;2023-04-15T00:17:00;0.90;;;0.90;;
33152;SDS011;19509;43.862;26.176;2023-04-15T00:19:27;0.60;;;0.60;;
33152;SDS011;19509;43.862;26.176;2023-04-15T00:21:53;0.60;;;0.60;;
33152;SDS011;19509;43.862;26.176;2023-04-15T00:24:19;0.80;;;0.80;;
33152;SDS011;19509;43.862;26.176;2023-04-15T00:26:45;0.60;;;0.60;;
33152;SDS011;19509;43.862;26.176;2023-04-15T00:29:11;0.70;;;0.70;;
33152;SDS011;19509;43.862;26.176;2023-04-15T00:31:36;0.60;;;0.60;;
33152;SDS011;19509;43.862;26.176;2023-04-15T00:34:02;0.50;;;0.50;;
33152;SDS011;19509;43.862;26.176;2023-04-15T00:36:27;0.60;;;0.60;;
33152;SDS011;19509;43.862;26.176;2023-04-15T00:38:53;0.60;;;0.60;;
33152;SDS011;19509;43.862;26.176;2023-04-15T00:41:19;0.53;;;0.53;;
33152;SDS011;19509;43.862;26.176;2023-04-15T00:43:45;0.57;;;0.57;;
33152;SDS011;19509;43.862;26.176;2023-04-15T00:46:11;0.50;;;0.50;;
33152;SDS011;19509;43.862;26.176;2023-04-15T00:48:38;0.60;;;0.60;;
33152;SDS011;19509;43.862;26.176;2023-04-15T00:51:04;0.50;;;0.50;;
33152;SDS011;19509;43.862;26.176;2023-04-15T00:53:31;0.70;;;0.70;;
33152;SDS011;19509;43.862;26.176;2023-04-15T00:55:56;1.00;;;1.00;;
33152;SDS011;19509;43.862;26.176;2023-04-15T00:58:22;0.60;;;0.60;;
33152;SDS011;19509;43.862;26.176;2023-04-15T01:00:47;0.90;;;0.90;;
33152;SDS011;19509;43.862;26.176;2023-04-15T01:03:13;0.70;;;0.70;;
33152;SDS011;19509;43.862;26.176;2023-04-15T01:05:39;0.50;;;0.50;;
33152;SDS011;19509;43.862;26.176;2023-04-15T01:08:05;0.70;;;0.70;;
33152;SDS011;19509;43.862;26.176;2023-04-15T01:10:31;0.60;;;0.60;;
33152;SDS011;19509;43.862;26.176;2023-04-15T01:12:57;0.50;;;0.50;;
33152;SDS011;19509;43.862;26.176;2023-04-15T01:15:23;0.50;;;0.50;;
33152;SDS011;19509;43.862;26.176;2023-04-15T01:17:49;0.60;;;0.60;;
33152;SDS011;19509;43.862;26.176;2023-04-15T01:20:14;0.60;;;0.60;;
33152;SDS011;19509;43.862;26.176;2023-04-15T01:22:40;0.60;;;0.60;;
33152;SDS011;19509;43.862;26.176;2023-04-15T01:25:10;0.80;;;0.80;;
33152;SDS011;19509;43.862;26.176;2023-04-15T01:27:38;0.60;;;0.60;;
33152;SDS011;19509;43.862;26.176;2023-04-15T01:30:05;0.60;;;0.60;;
33152;SDS011;19509;43.862;26.176;2023-04-15T01:32:32;0.50;;;0.50;;
33152;SDS011;19509;43.862;26.176;2023-04-15T01:34:57;0.50;;;0.50;;
33152;SDS011;19509;43.862;26.176;2023-04-15T01:37:23;0.60;;;0.60;;
33152;SDS011;19509;43.862;26.176;2023-04-15T01:39:49;0.50;;;0.50;;
33152;SDS011;19509;43.862;26.176;2023-04-15T01:42:15;0.50;;;0.50;;
33152;SDS011;19509;43.862;26.176;2023-04-15T01:44:41;0.50;;;0.50;;
33152;SDS011;19509;43.862;26.176;2023-04-15T01:47:06;0.60;;;0.60;;
33152;SDS011;19509;43.862;26.176;2023-04-15T01:49:32;0.50;;;0.50;;
33152;SDS011;19509;43.862;26.176;2023-04-15T01:51:58;0.50;;;0.50;;
33152;SDS011;19509;43.862;26.176;2023-04-15T01:54:24;0.50;;;0.50;;
33152;SDS011;19509;43.862;26.176;2023-04-15T01:56:51;0.60;;;0.60;;
33152;SDS011;19509;43.862;26.176;2023-04-15T01:59:17;0.60;;;0.60;;
33152;SDS011;19509;43.862;26.176;2023-04-15T02:01:43;0.57;;;0.57;;
33152;SDS011;19509;43.862;26.176;2023-04-15T02:04:09;0.47;;;0.47;;
33152;SDS011;19509;43.862;26.176;2023-04-15T02:06:41;0.60;;;0.60;;
33152;SDS011;19509;43.862;26.176;2023-04-15T02:09:08;0.53;;;0.53;;
33152;SDS011;19509;43.862;26.176;2023-04-15T02:11:33;0.50;;;0.50;;
33152;SDS011;19509;43.862;26.176;2023-04-15T02:14:01;0.60;;;0.60;;
33152;SDS011;19509;43.862;26.176;2023-04-15T02:16:26;0.60;;;0.60;;
33152;SDS011;19509;43.862;26.176;2023-04-15T02:18:52;0.67;;;0.67;;
33152;SDS011;19509;43.862;26.176;2023-04-15T02:21:17;0.50;;;0.50;;
33152;SDS011;19509;43.862;26.176;2023-04-15T02:23:43;0.50;;;0.50;;
33152;SDS011;19509;43.862;26.176;2023-04-15T02:26:11;0.60;;;0.60;;
33152;SDS011;19509;43.862;26.176;2023-04-15T02:28:36;0.60;;;0.60;;
33152;SDS011;19509;43.862;26.176;2023-04-15T02:31:05;0.60;;;0.60;;
33152;SDS011;19509;43.862;26.176;2023-04-15T02:33:32;0.60;;;0.60;;
33152;SDS011;19509;43.862;26.176;2023-04-15T02:35:57;0.53;;;0.53;;
33152;SDS011;19509;43.862;26.176;2023-04-15T02:38:23;0.80;;;0.80;;
33152;SDS011;19509;43.862;26.176;2023-04-15T02:40:49;0.60;;;0.60;;
33152;SDS011;19509;43.862;26.176;2023-04-15T02:43:15;0.60;;;0.60;;
33152;SDS011;19509;43.862;26.176;2023-04-15T02:45:41;0.70;;;0.70;;
33152;SDS011;19509;43.862;26.176;2023-04-15T02:48:08;0.53;;;0.53;;
33152;SDS011;19509;43.862;26.176;2023-04-15T02:50:33;0.70;;;0.70;;
33152;SDS011;19509;43.862;26.176;2023-04-15T02:52:59;0.70;;;0.70;;
33152;SDS011;19509;43.862;26.176;2023-04-15T02:55:26;0.80;;;0.80;;
33152;SDS011;19509;43.862;26.176;2023-04-15T02:57:52;0.70;;;0.70;;
33152;SDS011;19509;43.862;26.176;2023-04-15T03:00:18;0.63;;;0.63;;
33152;SDS011;19509;43.862;26.176;2023-04-15T03:02:44;0.70;;;0.70;;
33152;SDS011;19509;43.862;26.176;2023-04-15T03:05:11;0.70;;;0.70;;
33152;SDS011;19509;43.862;26.176;2023-04-15T03:07:37;0.73;;;0.73;;
33152;SDS011;19509;43.862;26.176;2023-04-15T03:10:04;0.60;;;0.60;;
33152;SDS011;19509;43.862;26.176;2023-04-15T03:12:30;0.70;;;0.70;;
33152;SDS011;19509;43.862;26.176;2023-04-15T03:14:56;0.53;;;0.53;;
33152;SDS011;19509;43.862;26.176;2023-04-15T03:17:21;0.60;;;0.60;;
33152;SDS011;19509;43.862;26.176;2023-04-15T03:19:47;0.60;;;0.60;;
33152;SDS011;19509;43.862;26.176;2023-04-15T03:22:12;0.60;;;0.60;;
33152;SDS011;19509;43.862;26.176;2023-04-15T03:24:38;0.70;;;0.70;;
33152;SDS011;19509;43.862;26.176;2023-04-15T03:27:04;0.60;;;0.60;;
33152;SDS011;19509;43.862;26.176;2023-04-15T03:29:30;0.60;;;0.60;;
33152;SDS011;19509;43.862;26.176;2023-04-15T03:31:55;0.60;;;0.60;;
33152;SDS011;19509;43.862;26.176;2023-04-15T03:34:21;0.60;;;0.60;;
33152;SDS011;19509;43.862;26.176;2023-04-15T03:36:47;0.70;;;0.70;;
33152;SDS011;19509;43.862;26.176;2023-04-15T03:39:12;0.70;;;0.70;;
33152;SDS011;19509;43.862;26.176;2023-04-15T03:41:38;0.70;;;0.70;;
33152;SDS011;19509;43.862;26.176;2023-04-15T03:44:03;0.70;;;0.70;;
33152;SDS011;19509;43.862;26.176;2023-04-15T03:46:29;0.80;;;0.80;;
33152;SDS011;19509;43.862;26.176;2023-04-15T03:48:55;0.67;;;0.67;;
33152;SDS011;19509;43.862;26.176;2023-04-15T03:51:20;0.80;;;0.80;;
33152;SDS011;19509;43.862;26.176;2023-04-15T03:53:46;0.70;;;0.70;;
33152;SDS011;19509;43.862;26.176;2023-04-15T03:56:12;0.60;;;0.60;;
33152;SDS011;19509;43.862;26.176;2023-04-15T03:58:37;0.77;;;0.77;;
33152;SDS011;19509;43.862;26.176;2023-04-15T04:01:02;1.00;;;1.00;;
33152;SDS011;19509;43.862;26.176;2023-04-15T04:03:28;0.97;;;0.97;;
33152;SDS011;19509;43.862;26.176;2023-04-15T04:05:54;0.90;;;0.90;;
33152;SDS011;19509;43.862;26.176;2023-04-15T04:08:19;0.80;;;0.80;;
33152;SDS011;19509;43.862;26.176;2023-04-15T04:10:46;0.70;;;0.70;;
33152;SDS011;19509;43.862;26.176;2023-04-15T04:13:11;0.60;;;0.60;;
33152;SDS011;19509;43.862;26.176;2023-04-15T04:15:37;0.50;;;0.50;;
33152;SDS011;19509;43.862;26.176;2023-04-15T04:18:02;0.60;;;0.60;;
33152;SDS011;19509;43.862;26.176;2023-04-15T04:20:28;0.60;;;0.60;;
33152;SDS011;19509;43.862;26.176;2023-04-15T04:22:55;0.63;;;0.63;;
33152;SDS011;19509;43.862;26.176;2023-04-15T04:25:21;0.70;;;0.70;;
33152;SDS011;19509;43.862;26.176;2023-04-15T04:27:47;0.60;;;0.60;;
33152;SDS011;19509;43.862;26.176;2023-04-15T04:30:12;0.70;;;0.70;;
33152;SDS011;19509;43.862;26.176;2023-04-15T04:32:38;0.50;;;0.50;;
33152;SDS011;19509;43.862;26.176;2023-04-15T04:35:04;0.63;;;0.63;;
33152;SDS011;19509;43.862;26.176;2023-04-15T04:37:29;0.60;;;0.60;;
33152;SDS011;19509;43.862;26.176;2023-04-15T04:39:55;0.70;;;0.70;;
33152;SDS011;19509;43.862;26.176;2023-04-15T04:42:21;0.60;;;0.60;;
33152;SDS011;19509;43.862;26.176;2023-04-15T04:44:46;0.60;;;0.60;;
33152;SDS011;19509;43.862;26.176;2023-04-15T04:47:12;0.77;;;0.77;;
33152;SDS011;19509;43.862;26.176;2023-04-15T04:49:38;0.67;;;0.67;;
33152;SDS011;19509;43.862;26.176;2023-04-15T04:52:03;0.70;;;0.70;;
33152;SDS011;19509;43.862;26.176;2023-04-15T04:54:29;0.80;;;0.80;;
33152;SDS011;19509;43.862;26.176;2023-04-15T04:56:55;0.73;;;0.73;;
33152;SDS011;19509;43.862;26.176;2023-04-15T04:59:22;0.80;;;0.80;;
33152;SDS011;19509;43.862;26.176;2023-04-15T05:01:47;0.70;;;0.70;;
33152;SDS011;19509;43.862;26.176;2023-04-15T05:04:13;1.30;;;1.30;;
33152;SDS011;19509;43.862;26.176;2023-04-15T05:06:39;1.30;;;1.30;;
33152;SDS011;19509;43.862;26.176;2023-04-15T05:09:04;0.80;;;0.80;;
33152;SDS011;19509;43.862;26.176;2023-04-15T05:11:30;0.60;;;0.60;;
33152;SDS011;19509;43.862;26.176;2023-04-15T05:13:56;0.60;;;0.60;;
33152;SDS011;19509;43.862;26.176;2023-04-15T05:16:22;0.70;;;0.70;;
33152;SDS011;19509;43.862;26.176;2023-04-15T05:18:47;0.80;;;0.80;;
33152;SDS011;19509;43.862;26.176;2023-04-15T05:21:13;0.67;;;0.67;;
33152;SDS011;19509;43.862;26.176;2023-04-15T05:23:38;0.60;;;0.60;;
33152;SDS011;19509;43.862;26.176;2023-04-15T05:26:04;0.70;;;0.70;;
33152;SDS011;19509;43.862;26.176;2023-04-15T05:28:29;0.60;;;0.60;;
33152;SDS011;19509;43.862;26.176;2023-04-15T05:30:56;0.60;;;0.60;;
33152;SDS011;19509;43.862;26.176;2023-04-15T05:33:21;0.60;;;0.60;;
33152;SDS011;19509;43.862;26.176;2023-04-15T05:35:47;0.50;;;0.50;;
33152;SDS011;19509;43.862;26.176;2023-04-15T05:38:12;0.57;;;0.57;;
33152;SDS011;19509;43.862;26.176;2023-04-15T05:40:38;0.60;;;0.60;;
33152;SDS011;19509;43.862;26.176;2023-04-15T05:43:03;0.60;;;0.60;;
33152;SDS011;19509;43.862;26.176;2023-04-15T05:45:29;0.50;;;0.50;;
33152;SDS011;19509;43.862;26.176;2023-04-15T05:47:55;0.60;;;0.60;;
33152;SDS011;19509;43.862;26.176;2023-04-15T05:50:20;0.60;;;0.60;;
33152;SDS011;19509;43.862;26.176;2023-04-15T05:52:46;0.60;;;0.60;;
33152;SDS011;19509;43.862;26.176;2023-04-15T05:55:11;0.60;;;0.60;;
33152;SDS011;19509;43.862;26.176;2023-04-15T05:57:38;0.50;;;0.50;;
33152;SDS011;19509;43.862;26.176;2023-04-15T06:00:04;1.00;;;1.00;;
33152;SDS011;19509;43.862;26.176;2023-04-15T06:02:30;0.90;;;0.90;;
33152;SDS011;19509;43.862;26.176;2023-04-15T06:04:55;0.60;;;0.60;;
33152;SDS011;19509;43.862;26.176;2023-04-15T06:07:22;0.50;;;0.50;;
33152;SDS011;19509;43.862;26.176;2023-04-15T06:09:47;0.60;;;0.60;;
33152;SDS011;19509;43.862;26.176;2023-04-15T06:12:14;0.50;;;0.50;;
33152;SDS011;19509;43.862;26.176;2023-04-15T06:14:39;0.60;;;0.60;;
33152;SDS011;19509;43.862;26.176;2023-04-15T06:17:05;0.57;;;0.57;;
33152;SDS011;19509;43.862;26.176;2023-04-15T06:19:31;0.60;;;0.60;;
33152;SDS011;19509;43.862;26.176;2023-04-15T06:21:57;0.50;;;0.50;;
33152;SDS011;19509;43.862;26.176;2023-04-15T06:24:23;0.53;;;0.53;;
33152;SDS011;19509;43.862;26.176;2023-04-15T06:26:48;0.63;;;0.63;;
33152;SDS011;19509;43.862;26.176;2023-04-15T06:29:14;0.50;;;0.50;;
33152;SDS011;19509;43.862;26.176;2023-04-15T06:31:40;0.53;;;0.53;;
33152;SDS011;19509;43.862;26.176;2023-04-15T06:34:05;0.60;;;0.60;;
33152;SDS011;19509;43.862;26.176;2023-04-15T06:36:31;0.60;;;0.60;;
33152;SDS011;19509;43.862;26.176;2023-04-15T06:38:57;0.50;;;0.50;;
33152;SDS011;19509;43.862;26.176;2023-04-15T06:41:22;0.70;;;0.70;;
33152;SDS011;19509;43.862;26.176;2023-04-15T06:43:48;0.50;;;0.50;;
33152;SDS011;19509;43.862;26.176;2023-04-15T06:46:13;0.50;;;0.50;;
33152;SDS011;19509;43.862;26.176;2023-04-15T06:48:39;0.60;;;0.60;;
33152;SDS011;19509;43.862;26.176;2023-04-15T06:51:05;0.60;;;0.60;;
33152;SDS011;19509;43.862;26.176;2023-04-15T06:53:31;0.60;;;0.60;;
33152;SDS011;19509;43.862;26.176;2023-04-15T06:55:56;0.60;;;0.60;;
33152;SDS011;19509;43.862;26.176;2023-04-15T06:58:22;0.67;;;0.67;;
33152;SDS011;19509;43.862;26.176;2023-04-15T07:00:47;0.60;;;0.60;;
33152;SDS011;19509;43.862;26.176;2023-04-15T07:03:13;1.27;;;0.60;;
33152;SDS011;19509;43.862;26.176;2023-04-15T07:05:39;0.50;;;0.50;;
33152;SDS011;19509;43.862;26.176;2023-04-15T07:08:05;0.50;;;0.50;;
33152;SDS011;19509;43.862;26.176;2023-04-15T07:10:32;0.60;;;0.60;;
33152;SDS011;19509;43.862;26.176;2023-04-15T07:12:58;0.70;;;0.70;;
33152;SDS011;19509;43.862;26.176;2023-04-15T07:15:23;0.73;;;0.60;;
33152;SDS011;19509;43.862;26.176;2023-04-15T07:17:49;0.60;;;0.60;;
33152;SDS011;19509;43.862;26.176;2023-04-15T07:20:15;0.60;;;0.60;;
33152;SDS011;19509;43.862;26.176;2023-04-15T07:22:40;0.50;;;0.50;;
33152;SDS011;19509;43.862;26.176;2023-04-15T07:25:06;0.50;;;0.50;;
33152;SDS011;19509;43.862;26.176;2023-04-15T07:27:32;0.57;;;0.57;;
33152;SDS011;19509;43.862;26.176;2023-04-15T07:29:58;0.50;;;0.50;;
33152;SDS011;19509;43.862;26.176;2023-04-15T07:32:23;0.50;;;0.50;;
33152;SDS011;19509;43.862;26.176;2023-04-15T07:34:49;0.50;;;0.50;;
33152;SDS011;19509;43.862;26.176;2023-04-15T07:37:14;0.50;;;0.50;;
33152;SDS011;19509;43.862;26.176;2023-04-15T07:39:40;0.50;;;0.50;;
33152;SDS011;19509;43.862;26.176;2023-04-15T07:42:05;1.40;;;0.80;;
33152;SDS011;19509;43.862;26.176;2023-04-15T07:44:31;0.70;;;0.70;;
33152;SDS011;19509;43.862;26.176;2023-04-15T07:46:56;0.60;;;0.60;;
33152;SDS011;19509;43.862;26.176;2023-04-15T07:49:22;0.50;;;0.50;;
33152;SDS011;19509;43.862;26.176;2023-04-15T07:51:48;0.70;;;0.70;;
33152;SDS011;19509;43.862;26.176;2023-04-15T07:54:14;0.77;;;0.60;;
33152;SDS011;19509;43.862;26.176;2023-04-15T07:56:40;0.50;;;0.50;;
33152;SDS011;19509;43.862;26.176;2023-04-15T07:59:06;1.30;;;0.60;;
33152;SDS011;19509;43.862;26.176;2023-04-15T08:01:33;0.60;;;0.60;;
33152;SDS011;19509;43.862;26.176;2023-04-15T08:03:59;0.60;;;0.60;;
33152;SDS011;19509;43.862;26.176;2023-04-15T08:06:24;0.60;;;0.60;;
33152;SDS011;19509;43.862;26.176;2023-04-15T08:08:50;0.50;;;0.50;;
33152;SDS011;19509;43.862;26.176;2023-04-15T08:11:16;0.50;;;0.50;;
33152;SDS011;19509;43.862;26.176;2023-04-15T08:13:41;0.40;;;0.40;;
33152;SDS011;19509;43.862;26.176;2023-04-15T08:16:17;0.50;;;0.40;;
33152;SDS011;19509;43.862;26.176;2023-04-15T08:18:52;0.60;;;0.60;;
33152;SDS011;19509;43.862;26.176;2023-04-15T08:21:19;0.60;;;0.60;;
33152;SDS011;19509;43.862;26.176;2023-04-15T08:23:45;0.70;;;0.70;;
33152;SDS011;19509;43.862;26.176;2023-04-15T08:26:13;0.70;;;0.70;;
33152;SDS011;19509;43.862;26.176;2023-04-15T08:28:41;0.90;;;0.90;;
33152;SDS011;19509;43.862;26.176;2023-04-15T08:31:10;0.80;;;0.80;;
33152;SDS011;19509;43.862;26.176;2023-04-15T08:33:36;0.70;;;0.70;;
33152;SDS011;19509;43.862;26.176;2023-04-15T08:36:02;0.80;;;0.80;;
33152;SDS011;19509;43.862;26.176;2023-04-15T08:38:28;0.60;;;0.60;;
33152;SDS011;19509;43.862;26.176;2023-04-15T08:40:54;0.60;;;0.60;;
33152;SDS011;19509;43.862;26.176;2023-04-15T08:43:23;0.53;;;0.53;;
33152;SDS011;19509;43.862;26.176;2023-04-15T08:45:53;0.67;;;0.67;;
33152;SDS011;19509;43.862;26.176;2023-04-15T08:48:19;0.67;;;0.67;;
33152;SDS011;19509;43.862;26.176;2023-04-15T08:50:45;0.70;;;0.70;;
33152;SDS011;19509;43.862;26.176;2023-04-15T08:53:12;0.70;;;0.70;;
33152;SDS011;19509;43.862;26.176;2023-04-15T08:55:41;0.83;;;0.80;;
33152;SDS011;19509;43.862;26.176;2023-04-15T08:58:12;0.53;;;0.53;;
33152;SDS011;19509;43.862;26.176;2023-04-15T09:00:41;0.60;;;0.60;;
33152;SDS011;19509;43.862;26.176;2023-04-15T09:03:07;0.50;;;0.50;;
33152;SDS011;19509;43.862;26.176;2023-04-15T09:05:33;0.60;;;0.60;;
33152;SDS011;19509;43.862;26.176;2023-04-15T09:08:00;0.63;;;0.63;;
33152;SDS011;19509;43.862;26.176;2023-04-15T09:10:26;0.70;;;0.70;;
33152;SDS011;19509;43.862;26.176;2023-04-15T09:12:52;0.77;;;0.77;;
33152;SDS011;19509;43.862;26.176;2023-04-15T09:15:18;0.60;;;0.60;;
33152;SDS011;19509;43.862;26.176;2023-04-15T09:17:45;0.60;;;0.60;;
33152;SDS011;19509;43.862;26.176;2023-04-15T09:20:14;0.60;;;0.60;;
33152;SDS011;19509;43.862;26.176;2023-04-15T09:22:44;0.50;;;0.50;;
33152;SDS011;19509;43.862;26.176;2023-04-15T09:25:24;0.63;;;0.63;;
33152;SDS011;19509;43.862;26.176;2023-04-15T09:27:52;0.70;;;0.70;;
33152;SDS011;19509;43.862;26.176;2023-04-15T09:30:22;0.60;;;0.60;;
33152;SDS011;19509;43.862;26.176;2023-04-15T09:32:51;0.50;;;0.50;;
33152;SDS011;19509;43.862;26.176;2023-04-15T09:35:26;0.50;;;0.50;;
33152;SDS011;19509;43.862;26.176;2023-04-15T09:37:52;0.60;;;0.60;;
33152;SDS011;19509;43.862;26.176;2023-04-15T09:40:34;0.53;;;0.53;;
33152;SDS011;19509;43.862;26.176;2023-04-15T09:43:02;0.47;;;0.47;;
33152;SDS011;19509;43.862;26.176;2023-04-15T09:45:31;0.67;;;0.67;;
33152;SDS011;19509;43.862;26.176;2023-04-15T09:47:58;0.53;;;0.53;;
33152;SDS011;19509;43.862;26.176;2023-04-15T09:50:28;0.60;;;0.60;;
33152;SDS011;19509;43.862;26.176;2023-04-15T09:52:54;0.50;;;0.50;;
33152;SDS011;19509;43.862;26.176;2023-04-15T09:55:20;0.57;;;0.57;;
33152;SDS011;19509;43.862;26.176;2023-04-15T09:57:46;0.60;;;0.60;;
33152;SDS011;19509;43.862;26.176;2023-04-15T10:00:12;0.60;;;0.60;;
33152;SDS011;19509;43.862;26.176;2023-04-15T10:02:41;0.60;;;0.60;;
33152;SDS011;19509;43.862;26.176;2023-04-15T10:05:10;0.50;;;0.50;;
33152;SDS011;19509;43.862;26.176;2023-04-15T10:07:38;0.50;;;0.50;;
33152;SDS011;19509;43.862;26.176;2023-04-15T10:10:08;0.60;;;0.60;;
33152;SDS011;19509;43.862;26.176;2023-04-15T10:12:36;0.60;;;0.60;;
33152;SDS011;19509;43.862;26.176;2023-04-15T10:15:04;0.50;;;0.50;;
33152;SDS011;19509;43.862;26.176;2023-04-15T10:17:31;0.53;;;0.53;;
33152;SDS011;19509;43.862;26.176;2023-04-15T10:20:03;0.50;;;0.50;;
33152;SDS011;19509;43.862;26.176;2023-04-15T10:22:29;0.50;;;0.50;;
33152;SDS011;19509;43.862;26.176;2023-04-15T10:24:56;0.50;;;0.50;;
33152;SDS011;19509;43.862;26.176;2023-04-15T10:27:22;0.60;;;0.60;;
33152;SDS011;19509;43.862;26.176;2023-04-15T10:29:49;0.50;;;0.50;;
33152;SDS011;19509;43.862;26.176;2023-04-15T10:32:16;0.50;;;0.50;;
33152;SDS011;19509;43.862;26.176;2023-04-15T10:34:45;0.50;;;0.50;;
33152;SDS011;19509;43.862;26.176;2023-04-15T10:37:12;0.50;;;0.50;;
33152;SDS011;19509;43.862;26.176;2023-04-15T10:39:45;0.50;;;0.50;;
33152;SDS011;19509;43.862;26.176;2023-04-15T10:44:41;0.57;;;0.57;;
33152;SDS011;19509;43.862;26.176;2023-04-15T10:47:11;0.60;;;0.60;;
33152;SDS011;19509;43.862;26.176;2023-04-15T10:49:42;0.63;;;0.63;;
33152;SDS011;19509;43.862;26.176;2023-04-15T10:52:09;0.57;;;0.57;;
33152;SDS011;19509;43.862;26.176;2023-04-15T10:54:35;0.50;;;0.50;;
33152;SDS011;19509;43.862;26.176;2023-04-15T10:59:28;0.60;;;0.60;;
33152;SDS011;19509;43.862;26.176;2023-04-15T11:02:01;0.70;;;0.70;;
33152;SDS011;19509;43.862;26.176;2023-04-15T11:08:00;0.60;;;0.60;;
33152;SDS011;19509;43.862;26.176;2023-04-15T11:10:02;0.40;;;0.40;;
33152;SDS011;19509;43.862;26.176;2023-04-15T11:12:34;0.50;;;0.50;;
33152;SDS011;19509;43.862;26.176;2023-04-15T11:20:38;0.50;;;0.50;;
33152;SDS011;19509;43.862;26.176;2023-04-15T11:23:05;0.50;;;0.50;;
33152;SDS011;19509;43.862;26.176;2023-04-15T11:25:33;0.60;;;0.60;;
33152;SDS011;19509;43.862;26.176;2023-04-15T11:28:00;0.60;;;0.60;;
33152;SDS011;19509;43.862;26.176;2023-04-15T11:30:27;0.47;;;0.47;;
33152;SDS011;19509;43.862;26.176;2023-04-15T11:33:00;0.53;;;0.53;;
33152;SDS011;19509;43.862;26.176;2023-04-15T11:35:28;0.57;;;0.57;;
33152;SDS011;19509;43.862;26.176;2023-04-15T11:37:54;0.67;;;0.60;;
33152;SDS011;19509;43.862;26.176;2023-04-15T11:40:26;0.43;;;0.43;;
33152;SDS011;19509;43.862;26.176;2023-04-15T11:45:51;0.53;;;0.53;;
33152;SDS011;19509;43.862;26.176;2023-04-15T11:48:22;0.47;;;0.47;;
33152;SDS011;19509;43.862;26.176;2023-04-15T11:51:01;0.60;;;0.60;;
33152;SDS011;19509;43.862;26.176;2023-04-15T11:56:21;0.50;;;0.50;;
33152;SDS011;19509;43.862;26.176;2023-04-15T11:58:52;0.60;;;0.60;;
33152;SDS011;19509;43.862;26.176;2023-04-15T12:01:20;0.57;;;0.57;;
33152;SDS011;19509;43.862;26.176;2023-04-15T12:03:59;0.50;;;0.50;;
33152;SDS011;19509;43.862;26.176;2023-04-15T12:06:30;0.80;;;0.80;;
33152;SDS011;19509;43.862;26.176;2023-04-15T12:08:59;0.63;;;0.63;;
33152;SDS011;19509;43.862;26.176;2023-04-15T12:11:32;0.80;;;0.80;;
33152;SDS011;19509;43.862;26.176;2023-04-15T12:14:12;0.60;;;0.60;;
33152;SDS011;19509;43.862;26.176;2023-04-15T12:16:43;0.50;;;0.50;;
33152;SDS011;19509;43.862;26.176;2023-04-15T12:19:11;0.60;;;0.60;;
33152;SDS011;19509;43.862;26.176;2023-04-15T12:21:39;0.63;;;0.63;;
33152;SDS011;19509;43.862;26.176;2023-04-15T12:24:09;0.60;;;0.60;;
33152;SDS011;19509;43.862;26.176;2023-04-15T12:29:01;0.50;;;0.50;;
33152;SDS011;19509;43.862;26.176;2023-04-15T12:31:32;0.90;;;0.50;;
33152;SDS011;19509;43.862;26.176;2023-04-15T12:34:01;0.50;;;0.50;;
33152;SDS011;19509;43.862;26.176;2023-04-15T12:36:28;0.60;;;0.60;;
33152;SDS011;19509;43.862;26.176;2023-04-15T12:39:00;0.50;;;0.50;;
33152;SDS011;19509;43.862;26.176;2023-04-15T12:41:29;0.60;;;0.60;;
33152;SDS011;19509;43.862;26.176;2023-04-15T12:43:55;0.50;;;0.50;;
33152;SDS011;19509;43.862;26.176;2023-04-15T12:46:21;0.50;;;0.50;;
33152;SDS011;19509;43.862;26.176;2023-04-15T12:48:47;0.50;;;0.50;;
33152;SDS011;19509;43.862;26.176;2023-04-15T12:51:13;0.60;;;0.60;;
33152;SDS011;19509;43.862;26.176;2023-04-15T12:53:38;0.50;;;0.50;;
33152;SDS011;19509;43.862;26.176;2023-04-15T12:56:04;0.40;;;0.40;;
33152;SDS011;19509;43.862;26.176;2023-04-15T12:58:30;0.60;;;0.60;;
33152;SDS011;19509;43.862;26.176;2023-04-15T13:00:56;0.40;;;0.40;;
33152;SDS011;19509;43.862;26.176;2023-04-15T13:03:21;0.60;;;0.60;;
33152;SDS011;19509;43.862;26.176;2023-04-15T13:05:47;0.50;;;0.50;;
33152;SDS011;19509;43.862;26.176;2023-04-15T13:08:12;0.50;;;0.50;;
33152;SDS011;19509;43.862;26.176;2023-04-15T13:10:38;0.60;;;0.60;;
33152;SDS011;19509;43.862;26.176;2023-04-15T13:13:04;0.50;;;0.50;;
33152;SDS011;19509;43.862;26.176;2023-04-15T13:15:30;0.50;;;0.50;;
33152;SDS011;19509;43.862;26.176;2023-04-15T13:17:56;0.60;;;0.60;;
33152;SDS011;19509;43.862;26.176;2023-04-15T13:20:21;0.50;;;0.50;;
33152;SDS011;19509;43.862;26.176;2023-04-15T13:22:47;0.40;;;0.40;;
33152;SDS011;19509;43.862;26.176;2023-04-15T13:25:12;0.40;;;0.40;;
33152;SDS011;19509;43.862;26.176;2023-04-15T13:27:38;0.50;;;0.50;;
33152;SDS011;19509;43.862;26.176;2023-04-15T13:30:04;0.50;;;0.50;;
33152;SDS011;19509;43.862;26.176;2023-04-15T13:32:30;0.50;;;0.50;;
33152;SDS011;19509;43.862;26.176;2023-04-15T13:34:56;0.50;;;0.50;;
33152;SDS011;19509;43.862;26.176;2023-04-15T13:37:25;0.50;;;0.50;;
33152;SDS011;19509;43.862;26.176;2023-04-15T13:39:52;0.60;;;0.60;;
33152;SDS011;19509;43.862;26.176;2023-04-15T13:42:18;0.50;;;0.50;;
33152;SDS011;19509;43.862;26.176;2023-04-15T13:44:43;0.50;;;0.50;;
33152;SDS011;19509;43.862;26.176;2023-04-15T13:47:09;0.70;;;0.70;;
33152;SDS011;19509;43.862;26.176;2023-04-15T13:49:35;0.50;;;0.50;;
33152;SDS011;19509;43.862;26.176;2023-04-15T13:52:00;0.50;;;0.50;;
33152;SDS011;19509;43.862;26.176;2023-04-15T13:54:26;0.50;;;0.50;;
33152;SDS011;19509;43.862;26.176;2023-04-15T13:56:51;0.50;;;0.50;;
33152;SDS011;19509;43.862;26.176;2023-04-15T13:59:19;0.50;;;0.50;;
33152;SDS011;19509;43.862;26.176;2023-04-15T14:01:44;0.50;;;0.50;;
33152;SDS011;19509;43.862;26.176;2023-04-15T14:04:10;0.50;;;0.50;;
33152;SDS011;19509;43.862;26.176;2023-04-15T14:06:35;0.60;;;0.60;;
33152;SDS011;19509;43.862;26.176;2023-04-15T14:09:01;0.50;;;0.50;;
33152;SDS011;19509;43.862;26.176;2023-04-15T14:11:26;0.50;;;0.50;;
33152;SDS011;19509;43.862;26.176;2023-04-15T14:13:52;0.40;;;0.40;;
33152;SDS011;19509;43.862;26.176;2023-04-15T14:16:17;0.50;;;0.50;;
33152;SDS011;19509;43.862;26.176;2023-04-15T14:18:43;0.50;;;0.50;;
33152;SDS011;19509;43.862;26.176;2023-04-15T14:21:08;0.57;;;0.57;;
33152;SDS011;19509;43.862;26.176;2023-04-15T14:23:34;0.50;;;0.50;;
33152;SDS011;19509;43.862;26.176;2023-04-15T14:26:00;0.60;;;0.60;;
33152;SDS011;19509;43.862;26.176;2023-04-15T14:28:25;0.50;;;0.50;;
33152;SDS011;19509;43.862;26.176;2023-04-15T14:30:50;0.63;;;0.63;;
33152;SDS011;19509;43.862;26.176;2023-04-15T14:33:16;0.40;;;0.40;;
33152;SDS011;19509;43.862;26.176;2023-04-15T14:35:41;0.50;;;0.50;;
33152;SDS011;19509;43.862;26.176;2023-04-15T14:38:07;0.40;;;0.40;;
33152;SDS011;19509;43.862;26.176;2023-04-15T14:40:34;0.50;;;0.50;;
33152;SDS011;19509;43.862;26.176;2023-04-15T14:43:00;0.50;;;0.50;;
33152;SDS011;19509;43.862;26.176;2023-04-15T14:45:26;0.40;;;0.40;;
33152;SDS011;19509;43.862;26.176;2023-04-15T14:47:52;0.50;;;0.50;;
33152;SDS011;19509;43.862;26.176;2023-04-15T14:50:18;0.60;;;0.60;;
33152;SDS011;19509;43.862;26.176;2023-04-15T14:52:43;0.57;;;0.57;;